Time;durP1;ratioP1;P1;durP2;ratioP2;P2;SDS_P1;SDS_P2;PMS_P1;PMS_P2;Temp;Humidity;BMP_temperature;BMP_pressure;BME280_temperature;BME280_humidity;BME280_pressure;Samples;Min_cycle;Max_cycle;Signal;HPM_P1;HPM_P2
2021/01/03 00:02:05;;;;;;;1.80;1.63;;;9.60;78.00;;;;;;5093714;28;20043;-67
2021/01/03 00:04:31;;;;;;;2.00;1.50;;;9.60;77.90;;;;;;5094220;28;20036;-67
2021/01/03 00:06:57;;;;;;;1.48;1.38;;;9.70;78.10;;;;;;5093804;28;20032;-68
2021/01/03 00:09:24;;;;;;;1.98;1.60;;;9.60;78.10;;;;;;5094108;28;20032;-67
2021/01/03 00:11:51;;;;;;;1.85;1.55;;;9.70;78.10;;;;;;5093421;28;20032;-66
2021/01/03 00:14:17;;;;;;;1.00;1.00;;;9.70;78.00;;;;;;5093506;28;20539;-67
2021/01/03 00:16:51;;;;;;;1.95;1.77;;;9.60;77.90;;;;;;5092787;28;20066;-66
2021/01/03 00:19:17;;;;;;;1.42;1.27;;;9.70;77.80;;;;;;5094026;28;20055;-67
2021/01/03 00:21:43;;;;;;;1.30;1.20;;;9.70;77.70;;;;;;5093419;28;20040;-66
2021/01/03 00:24:09;;;;;;;1.58;1.42;;;9.60;77.90;;;;;;5093322;28;20040;-66
2021/01/03 00:26:36;;;;;;;1.25;1.15;;;9.60;77.60;;;;;;5092619;28;20035;-66
2021/01/03 00:29:02;;;;;;;0.90;0.90;;;9.60;77.50;;;;;;5093482;28;20473;-65
2021/01/03 00:31:27;;;;;;;1.45;1.08;;;9.60;77.50;;;;;;5090864;28;20127;-67
2021/01/03 00:33:54;;;;;;;1.23;1.13;;;9.60;77.50;;;;;;5091751;28;20480;-65
2021/01/03 00:36:20;;;;;;;1.85;1.50;;;9.60;77.30;;;;;;5091696;28;20446;-65
2021/01/03 00:38:46;;;;;;;0.98;0.85;;;9.60;77.80;;;;;;5092049;28;20039;-67
2021/01/03 00:41:13;;;;;;;1.20;1.10;;;9.60;77.30;;;;;;5093356;28;20036;-68
2021/01/03 00:43:39;;;;;;;0.98;0.95;;;9.60;77.00;;;;;;5092077;28;20161;-66
2021/01/03 00:46:05;;;;;;;1.45;1.10;;;9.60;77.00;;;;;;5092944;28;20529;-66
2021/01/03 00:48:31;;;;;;;0.90;0.80;;;9.60;77.00;;;;;;5093154;28;20058;-66
2021/01/03 00:50:57;;;;;;;2.05;1.05;;;9.60;77.00;;;;;;5093007;28;20039;-66
2021/01/03 00:53:23;;;;;;;1.00;0.90;;;9.70;76.90;;;;;;5093431;28;20502;-65
2021/01/03 00:55:49;;;;;;;2.65;0.80;;;9.60;76.70;;;;;;5093162;28;20109;-66
2021/01/03 00:58:15;;;;;;;1.15;0.77;;;9.60;76.80;;;;;;5092758;28;20040;-66
2021/01/03 01:00:41;;;;;;;0.88;0.88;;;9.60;76.70;;;;;;5093008;28;20063;-66
2021/01/03 01:03:08;;;;;;;0.95;0.88;;;9.60;76.60;;;;;;5092732;28;20043;-65
2021/01/03 01:05:33;;;;;;;0.80;0.70;;;9.60;76.50;;;;;;5092524;28;20074;-66
2021/01/03 01:08:00;;;;;;;0.73;0.70;;;9.60;76.60;;;;;;5092867;28;20028;-65
2021/01/03 01:10:29;;;;;;;1.10;1.00;;;9.60;76.60;;;;;;5093094;28;20039;-66
2021/01/03 01:12:57;;;;;;;0.70;0.70;;;9.60;76.40;;;;;;5093074;28;20044;-66
2021/01/03 01:15:30;;;;;;;0.60;0.60;;;9.60;76.40;;;;;;5091464;28;20040;-65
2021/01/03 01:17:58;;;;;;;1.05;0.98;;;9.60;76.30;;;;;;5092664;28;20032;-65
2021/01/03 01:20:26;;;;;;;0.82;0.82;;;9.60;76.40;;;;;;5091875;28;20040;-65
2021/01/03 01:22:52;;;;;;;0.70;0.70;;;9.60;76.50;;;;;;5092826;28;20074;-66
2021/01/03 01:25:21;;;;;;;1.15;1.00;;;9.60;76.30;;;;;;5092771;28;20096;-67
2021/01/03 01:27:46;;;;;;;0.70;0.70;;;9.60;76.10;;;;;;5075094;28;20059;-66
2021/01/03 01:30:13;;;;;;;1.02;0.93;;;9.60;76.10;;;;;;5092836;28;20157;-66
2021/01/03 01:32:40;;;;;;;0.73;0.73;;;9.60;76.10;;;;;;5092553;28;20024;-67
2021/01/03 01:35:09;;;;;;;1.05;1.02;;;9.60;76.00;;;;;;5092264;28;20484;-66
2021/01/03 01:37:35;;;;;;;1.13;1.02;;;9.60;76.10;;;;;;5091966;28;20044;-66
2021/01/03 01:40:01;;;;;;;1.05;0.90;;;9.60;76.40;;;;;;5096913;28;20020;-66
2021/01/03 01:42:27;;;;;;;1.08;0.98;;;9.60;76.20;;;;;;5096530;28;20419;-65
2021/01/03 01:44:53;;;;;;;1.05;1.00;;;9.60;76.10;;;;;;5096687;28;20043;-66
2021/01/03 01:47:30;;;;;;;1.23;0.88;;;9.60;76.10;;;;;;5096191;28;20082;-67
2021/01/03 01:49:58;;;;;;;1.02;0.90;;;9.60;76.20;;;;;;5096812;28;20514;-67
2021/01/03 01:52:32;;;;;;;0.90;0.90;;;9.60;76.10;;;;;;5095046;28;20056;-66
2021/01/03 01:55:04;;;;;;;0.80;0.80;;;9.60;76.20;;;;;;5096501;28;20071;-66
2021/01/03 01:57:36;;;;;;;1.10;1.00;;;9.60;76.30;;;;;;5095031;28;20038;-65
2021/01/03 02:00:02;;;;;;;1.10;1.00;;;9.60;76.20;;;;;;5094968;28;20117;-65
2021/01/03 02:02:38;;;;;;;1.25;1.15;;;9.60;76.20;;;;;;5095900;28;20047;-66
2021/01/03 02:05:10;;;;;;;1.20;1.10;;;9.60;76.40;;;;;;5096332;28;20063;-66
2021/01/03 02:07:48;;;;;;;1.52;1.25;;;9.60;76.20;;;;;;5095785;28;20043;-65
2021/01/03 02:10:29;;;;;;;1.13;1.02;;;9.60;76.00;;;;;;5096255;28;20496;-66
2021/01/03 02:13:09;;;;;;;0.90;0.90;;;9.60;76.10;;;;;;5096027;28;20047;-65
2021/01/03 02:15:36;;;;;;;1.20;1.10;;;9.60;75.90;;;;;;5096400;28;20062;-65
2021/01/03 02:18:05;;;;;;;0.90;0.90;;;9.60;75.80;;;;;;5094885;28;20032;-65
2021/01/03 02:20:48;;;;;;;0.75;0.75;;;9.60;75.90;;;;;;5095874;28;20044;-65
2021/01/03 02:23:23;;;;;;;1.00;1.00;;;9.50;75.80;;;;;;5095684;28;20035;-66
2021/01/03 02:25:50;;;;;;;1.33;1.02;;;9.50;75.70;;;;;;5094587;28;20063;-65
2021/01/03 02:28:20;;;;;;;0.80;0.80;;;9.50;75.70;;;;;;5095718;28;20032;-65
2021/01/03 02:30:50;;;;;;;0.80;0.80;;;9.50;75.90;;;;;;5095566;28;20457;-66
2021/01/03 02:33:19;;;;;;;1.00;0.90;;;9.50;76.20;;;;;;5095346;28;20024;-66
2021/01/03 02:35:48;;;;;;;1.08;0.98;;;9.50;75.70;;;;;;5095760;28;20050;-65
2021/01/03 02:38:21;;;;;;;0.98;0.98;;;9.60;75.80;;;;;;5095584;28;20484;-65
2021/01/03 02:40:47;;;;;;;1.13;1.10;;;9.50;75.80;;;;;;5095645;28;20093;-66
2021/01/03 02:43:13;;;;;;;1.17;1.08;;;9.50;75.60;;;;;;5094491;28;20028;-64
2021/01/03 02:45:39;;;;;;;0.88;0.88;;;9.50;75.70;;;;;;5095376;28;20040;-65
2021/01/03 02:48:24;;;;;;;1.10;1.00;;;9.50;75.70;;;;;;5094984;28;20100;-65
2021/01/03 02:50:51;;;;;;;0.90;0.90;;;9.50;75.20;;;;;;5095230;28;20040;-66
2021/01/03 02:53:17;;;;;;;1.30;1.20;;;9.50;75.40;;;;;;5095242;28;20527;-67
2021/01/03 02:55:43;;;;;;;1.20;1.20;;;9.40;75.60;;;;;;5095304;28;20043;-65
2021/01/03 02:58:09;;;;;;;1.55;1.45;;;9.40;75.40;;;;;;5094901;28;20024;-65
2021/01/03 03:00:37;;;;;;;1.42;1.20;;;9.40;75.40;;;;;;5094928;28;20058;-66
2021/01/03 03:03:04;;;;;;;1.40;1.30;;;9.40;75.70;;;;;;5095077;28;20051;-66
2021/01/03 03:05:30;;;;;;;1.38;1.20;;;9.40;75.70;;;;;;5095355;28;20032;-65
2021/01/03 03:07:56;;;;;;;1.10;1.00;;;9.40;75.50;;;;;;5095093;28;20035;-66
2021/01/03 03:10:23;;;;;;;1.30;1.20;;;9.40;75.60;;;;;;5094817;28;20039;-66
2021/01/03 03:12:50;;;;;;;2.42;1.20;;;9.40;76.10;;;;;;5095052;28;20361;-66
2021/01/03 03:15:19;;;;;;;1.42;1.15;;;9.40;75.90;;;;;;5094536;28;20024;-66
2021/01/03 03:17:45;;;;;;;1.45;1.10;;;9.40;75.80;;;;;;5093567;28;20039;-66
2021/01/03 03:20:12;;;;;;;2.15;1.17;;;9.40;76.30;;;;;;5095034;28;20549;-67
2021/01/03 03:22:38;;;;;;;2.08;1.30;;;9.40;76.20;;;;;;5094757;28;20097;-66
2021/01/03 03:25:08;;;;;;;1.25;1.05;;;9.40;76.10;;;;;;5094884;28;20052;-66
2021/01/03 03:27:35;;;;;;;1.33;1.23;;;9.40;76.30;;;;;;5094455;28;20062;-67
2021/01/03 03:30:03;;;;;;;1.23;1.13;;;9.30;76.20;;;;;;5094296;28;20500;-66
2021/01/03 03:32:29;;;;;;;1.90;1.27;;;9.30;76.00;;;;;;5094559;28;20492;-66
2021/01/03 03:34:55;;;;;;;1.25;1.20;;;9.30;76.00;;;;;;5094930;28;20153;-67
2021/01/03 03:37:21;;;;;;;1.77;1.20;;;9.30;76.30;;;;;;5094410;28;20032;-67
2021/01/03 03:39:47;;;;;;;1.20;1.10;;;9.30;76.00;;;;;;5094507;28;20024;-67
2021/01/03 03:42:13;;;;;;;2.05;1.20;;;9.30;75.80;;;;;;5094368;28;20553;-66
2021/01/03 03:44:38;;;;;;;1.20;1.10;;;9.30;76.50;;;;;;5094003;28;20075;-66
2021/01/03 03:47:04;;;;;;;1.98;1.20;;;9.30;75.80;;;;;;5094385;28;20067;-66
2021/01/03 03:49:32;;;;;;;1.27;1.17;;;9.30;75.60;;;;;;5093986;28;20071;-65
2021/01/03 03:52:00;;;;;;;1.08;1.08;;;9.30;75.60;;;;;;5093832;28;20089;-66
2021/01/03 03:54:27;;;;;;;1.58;1.20;;;9.30;75.90;;;;;;5092901;28;20032;-65
2021/01/03 03:56:55;;;;;;;2.00;1.00;;;9.30;75.70;;;;;;5093934;28;20078;-65
2021/01/03 03:59:23;;;;;;;1.13;1.13;;;9.30;75.40;;;;;;5075631;28;20442;-67
2021/01/03 04:01:49;;;;;;;1.02;1.00;;;9.30;75.90;;;;;;5092747;28;20028;-66
2021/01/03 04:04:16;;;;;;;0.95;0.93;;;9.30;75.80;;;;;;5093775;28;20051;-67
2021/01/03 04:06:43;;;;;;;1.10;1.00;;;9.30;75.60;;;;;;5092335;28;20024;-66
2021/01/03 04:09:10;;;;;;;2.03;1.30;;;9.30;75.60;;;;;;5094164;28;20039;-65
2021/01/03 04:11:41;;;;;;;0.90;0.90;;;9.30;75.70;;;;;;5094033;28;20380;-66
2021/01/03 04:14:08;;;;;;;1.33;1.23;;;9.30;75.40;;;;;;5093949;28;20032;-66
2021/01/03 04:16:34;;;;;;;1.65;1.10;;;9.30;75.10;;;;;;5093917;28;20044;-66
2021/01/03 04:19:00;;;;;;;0.93;0.90;;;9.20;75.30;;;;;;5093464;28;20515;-66
2021/01/03 04:21:27;;;;;;;1.10;1.10;;;9.30;75.10;;;;;;5093330;28;20036;-66
2021/01/03 04:23:52;;;;;;;1.33;1.27;;;9.30;74.90;;;;;;5093502;28;20519;-66
2021/01/03 04:26:20;;;;;;;1.17;1.10;;;9.30;75.20;;;;;;5093208;28;20101;-66
2021/01/03 04:28:46;;;;;;;1.15;1.00;;;9.20;75.10;;;;;;5093346;28;20024;-66
2021/01/03 04:31:17;;;;;;;1.15;1.00;;;9.30;74.70;;;;;;5093359;28;20540;-66
2021/01/03 04:33:43;;;;;;;1.05;1.05;;;9.20;74.90;;;;;;5093471;28;20407;-66
2021/01/03 04:36:16;;;;;;;1.38;1.27;;;9.20;75.20;;;;;;5092076;28;20035;-67
2021/01/03 04:38:42;;;;;;;1.13;1.05;;;9.30;75.00;;;;;;5093351;28;20066;-67
2021/01/03 04:41:17;;;;;;;1.05;1.05;;;9.20;74.90;;;;;;5091873;28;20040;-67
2021/01/03 04:43:44;;;;;;;0.90;0.90;;;9.20;75.30;;;;;;5093457;28;20043;-66
2021/01/03 04:46:15;;;;;;;1.67;1.00;;;9.20;75.20;;;;;;5093252;28;20571;-66
2021/01/03 04:48:42;;;;;;;1.02;1.00;;;9.20;75.00;;;;;;5093483;28;20036;-67
2021/01/03 04:51:28;;;;;;;2.03;1.15;;;9.20;75.30;;;;;;5091846;28;20463;-67
2021/01/03 04:54:18;;;;;;;1.02;1.02;;;9.20;75.40;;;;;;5093255;28;20036;-66
2021/01/03 04:56:54;;;;;;;1.15;1.00;;;9.30;75.20;;;;;;5093039;28;20500;-66
2021/01/03 04:59:41;;;;;;;1.42;1.33;;;9.20;75.30;;;;;;5092996;28;20047;-68
2021/01/03 05:02:16;;;;;;;1.08;1.08;;;9.20;75.40;;;;;;5093200;28;20101;-66
2021/01/03 05:04:48;;;;;;;1.35;1.25;;;9.20;75.20;;;;;;5093018;28;20036;-66
2021/01/03 05:07:39;;;;;;;1.33;1.23;;;9.20;75.60;;;;;;5093205;28;20040;-66
2021/01/03 05:10:24;;;;;;;1.40;1.30;;;9.20;75.50;;;;;;5092795;28;20040;-66
2021/01/03 05:13:31;;;;;;;2.22;1.20;;;9.20;75.20;;;;;;5092872;28;20061;-66
2021/01/03 05:15:57;;;;;;;1.95;1.50;;;9.20;75.30;;;;;;5069792;28;20063;-67
2021/01/03 05:18:23;;;;;;;1.65;1.55;;;9.20;75.40;;;;;;5092822;28;20063;-67
2021/01/03 05:20:56;;;;;;;2.15;1.30;;;9.20;75.00;;;;;;5092857;28;20062;-66
2021/01/03 05:23:25;;;;;;;1.40;1.30;;;9.10;75.10;;;;;;5092569;28;20058;-66
2021/01/03 05:25:54;;;;;;;1.45;1.35;;;9.10;75.40;;;;;;5092546;28;20040;-66
2021/01/03 05:28:25;;;;;;;1.17;1.08;;;9.20;75.10;;;;;;5092624;28;20189;-66
2021/01/03 05:30:51;;;;;;;1.40;1.30;;;9.10;75.10;;;;;;5093093;28;20388;-66
2021/01/03 05:33:27;;;;;;;1.40;1.30;;;9.10;75.30;;;;;;5092381;28;20519;-66
2021/01/03 05:35:55;;;;;;;1.50;1.23;;;9.10;75.00;;;;;;5093111;28;20450;-67
2021/01/03 05:38:42;;;;;;;1.60;1.50;;;9.10;75.00;;;;;;5074663;28;20403;-66
2021/01/03 05:41:22;;;;;;;2.40;1.48;;;9.10;75.50;;;;;;5091273;28;20499;-66
2021/01/03 05:43:55;;;;;;;1.60;1.50;;;9.10;75.10;;;;;;5092667;28;20036;-66
2021/01/03 05:46:32;;;;;;;1.50;1.40;;;9.10;75.10;;;;;;5091323;28;20040;-67
2021/01/03 05:49:09;;;;;;;1.75;1.48;;;9.10;75.40;;;;;;5091533;28;20036;-65
2021/01/03 05:51:47;;;;;;;1.48;1.20;;;9.10;75.20;;;;;;5092434;28;20127;-66
2021/01/03 05:54:17;;;;;;;1.95;1.85;;;9.10;75.20;;;;;;5092758;28;20075;-66
2021/01/03 05:56:45;;;;;;;1.98;1.77;;;9.10;75.30;;;;;;5093263;28;20056;-66
2021/01/03 05:59:30;;;;;;;1.90;1.80;;;9.10;75.40;;;;;;5092409;28;20043;-67
2021/01/03 06:02:12;;;;;;;2.08;1.60;;;9.10;75.30;;;;;;5092140;28;20040;-65
2021/01/03 06:04:38;;;;;;;1.70;1.60;;;9.10;75.40;;;;;;5091070;28;20050;-66
2021/01/03 06:07:17;;;;;;;2.90;2.20;;;9.10;75.40;;;;;;5092726;28;20063;-67
2021/01/03 06:09:44;;;;;;;1.98;1.88;;;9.10;75.00;;;;;;5092312;28;20118;-67
2021/01/03 06:12:27;;;;;;;1.73;1.55;;;9.10;74.90;;;;;;5090845;28;20032;-66
2021/01/03 06:15:03;;;;;;;2.28;2.08;;;9.10;75.30;;;;;;5073983;28;20111;-66
2021/01/03 06:17:33;;;;;;;2.22;2.03;;;9.10;74.90;;;;;;5092292;28;20036;-66
2021/01/03 06:20:13;;;;;;;2.38;2.10;;;9.10;74.70;;;;;;5091215;28;20403;-67
2021/01/03 06:22:48;;;;;;;2.70;2.10;;;9.10;74.90;;;;;;5090725;28;20458;-67
2021/01/03 06:25:45;;;;;;;2.13;1.90;;;9.10;74.70;;;;;;5093929;28;20505;-67
2021/01/03 06:28:31;;;;;;;3.15;2.15;;;9.10;74.70;;;;;;5094501;28;20042;-66
2021/01/03 06:31:35;;;;;;;2.35;2.15;;;9.10;74.90;;;;;;5095322;28;20237;-67
2021/01/03 06:34:14;;;;;;;2.47;2.17;;;9.10;74.70;;;;;;5095396;28;20553;-67
2021/01/03 06:36:57;;;;;;;2.90;2.30;;;9.10;74.60;;;;;;5095596;28;20039;-67
2021/01/03 06:39:35;;;;;;;2.13;1.92;;;9.10;74.90;;;;;;5095479;28;20168;-66
2021/01/03 06:42:04;;;;;;;2.05;1.88;;;9.10;74.50;;;;;;5095284;28;20050;-66
2021/01/03 06:44:46;;;;;;;2.33;2.13;;;9.10;74.60;;;;;;5095498;28;20043;-66
2021/01/03 06:47:31;;;;;;;3.72;2.25;;;9.10;75.00;;;;;;5095760;28;20036;-66
2021/01/03 06:50:31;;;;;;;2.53;2.33;;;9.20;74.90;;;;;;5095363;28;20032;-67
2021/01/03 06:53:12;;;;;;;1.88;1.60;;;9.10;75.20;;;;;;5094183;28;20046;-65
2021/01/03 06:55:53;;;;;;;1.80;1.70;;;9.20;74.70;;;;;;5094391;28;20040;-65
2021/01/03 06:58:37;;;;;;;2.15;1.95;;;9.20;74.20;;;;;;5095231;28;20040;-66
2021/01/03 07:01:21;;;;;;;2.33;2.08;;;9.20;74.10;;;;;;5095328;28;20051;-65
2021/01/03 07:03:50;;;;;;;2.85;2.25;;;9.10;74.20;;;;;;5095018;28;20044;-67
2021/01/03 07:06:17;;;;;;;2.65;1.67;;;9.10;74.00;;;;;;5094934;28;20526;-67
2021/01/03 07:08:53;;;;;;;2.00;1.80;;;9.20;73.60;;;;;;5094756;28;20053;-66
2021/01/03 07:11:38;;;;;;;;;;;9.10;73.90;;;;;;5094136;28;20123;-67
2021/01/03 07:14:17;;;;;;;2.58;1.33;;;9.10;73.70;;;;;;5095019;28;19919;-66
2021/01/03 07:16:49;;;;;;;2.00;1.70;;;9.10;73.30;;;;;;5093476;28;20028;-67
2021/01/03 07:19:31;;;;;;;1.75;1.63;;;9.10;73.30;;;;;;5095065;28;20118;-65
2021/01/03 07:22:11;;;;;;;2.38;2.17;;;9.10;73.50;;;;;;5093226;28;20040;-68
2021/01/03 07:24:46;;;;;;;1.90;1.80;;;9.10;73.30;;;;;;5093528;28;20055;-68
2021/01/03 07:27:34;;;;;;;1.60;1.50;;;9.10;73.20;;;;;;5093302;28;20039;-68
2021/01/03 07:30:03;;;;;;;1.80;1.70;;;9.10;73.30;;;;;;5094511;28;20117;-67
2021/01/03 07:32:37;;;;;;;1.98;1.77;;;9.10;73.00;;;;;;5094148;28;20035;-68
2021/01/03 07:35:27;;;;;;;2.38;1.92;;;9.10;72.80;;;;;;5093334;28;20032;-67
2021/01/03 07:38:15;;;;;;;2.30;1.73;;;9.10;72.90;;;;;;5094131;28;20043;-68
2021/01/03 07:40:54;;;;;;;2.20;2.00;;;9.20;72.50;;;;;;5092838;28;20044;-67
2021/01/03 07:43:21;;;;;;;1.88;1.75;;;9.10;72.60;;;;;;5094241;28;20032;-68
2021/01/03 07:45:49;;;;;;;2.00;1.80;;;9.10;72.80;;;;;;5094541;28;20035;-67
2021/01/03 07:48:34;;;;;;;2.35;1.73;;;9.20;72.60;;;;;;5093831;28;20147;-67
2021/01/03 07:51:01;;;;;;;4.43;2.28;;;9.20;72.40;;;;;;5094118;28;20039;-67
2021/01/03 07:53:34;;;;;;;2.80;2.25;;;9.20;72.80;;;;;;5093671;28;20369;-69
2021/01/03 07:56:26;;;;;;;2.92;2.15;;;9.20;72.60;;;;;;5094370;28;20089;-68
2021/01/03 07:58:55;;;;;;;2.92;2.13;;;9.10;72.60;;;;;;5085684;28;20500;-68
2021/01/03 08:01:24;;;;;;;2.30;2.08;;;9.20;72.90;;;;;;5093440;28;20059;-70
2021/01/03 08:03:50;;;;;;;2.45;1.92;;;9.20;72.70;;;;;;5093357;28;20400;-68
2021/01/03 08:06:18;;;;;;;2.65;2.25;;;9.20;72.50;;;;;;5092471;28;20032;-69
2021/01/03 08:08:52;;;;;;;3.67;2.60;;;9.20;72.60;;;;;;5092435;28;20040;-69
2021/01/03 08:11:44;;;;;;;3.55;2.15;;;9.20;72.60;;;;;;5093570;28;20043;-70
2021/01/03 08:14:25;;;;;;;3.47;2.95;;;9.20;72.10;;;;;;5091506;28;20087;-69
2021/01/03 08:16:51;;;;;;;3.30;2.70;;;9.20;72.40;;;;;;5094036;28;20036;-69
2021/01/03 08:19:22;;;;;;;3.60;2.83;;;9.20;72.50;;;;;;5093405;28;20056;-68
2021/01/03 08:21:57;;;;;;;3.75;2.70;;;9.20;72.20;;;;;;5093658;28;20036;-68
2021/01/03 08:24:26;;;;;;;2.65;2.17;;;9.20;72.50;;;;;;5093411;28;20032;-66
2021/01/03 08:26:56;;;;;;;4.38;2.88;;;9.20;72.70;;;;;;5093492;28;20044;-66
2021/01/03 08:29:46;;;;;;;3.22;2.92;;;9.20;72.30;;;;;;5093188;28;20089;-67
2021/01/03 08:32:24;;;;;;;3.53;3.10;;;9.30;72.50;;;;;;5093570;28;20096;-66
2021/01/03 08:34:50;;;;;;;4.70;3.13;;;9.20;72.60;;;;;;5093447;28;20063;-66
2021/01/03 08:37:20;;;;;;;3.78;3.08;;;9.30;72.40;;;;;;5092880;28;20506;-65
2021/01/03 08:39:48;;;;;;;3.92;3.22;;;9.20;72.20;;;;;;5093025;28;20111;-66
2021/01/03 08:42:37;;;;;;;3.78;3.08;;;9.20;72.50;;;;;;5092959;28;20476;-71
2021/01/03 08:45:07;;;;;;;8.05;4.03;;;9.30;72.40;;;;;;5091908;28;20400;-69
2021/01/03 08:47:39;;;;;;;4.63;3.40;;;9.30;72.50;;;;;;5092043;28;20411;-69
2021/01/03 08:50:23;;;;;;;4.47;3.30;;;9.30;72.50;;;;;;5092994;28;20093;-69
2021/01/03 08:53:19;;;;;;;5.47;3.97;;;9.30;71.90;;;;;;5092806;28;20040;-71
2021/01/03 08:55:45;;;;;;;4.68;3.85;;;9.30;72.40;;;;;;5086952;28;20040;-67
2021/01/03 08:58:18;;;;;;;4.35;3.55;;;9.30;72.70;;;;;;5092693;28;20438;-65
2021/01/03 09:00:57;;;;;;;5.32;3.88;;;9.30;71.90;;;;;;5093025;28;20054;-69
2021/01/03 09:03:24;;;;;;;4.72;3.67;;;9.30;72.80;;;;;;5091336;28;20500;-66
2021/01/03 09:05:51;;;;;;;6.60;3.60;;;9.30;72.80;;;;;;5092554;28;20448;-68
2021/01/03 09:08:36;;;;;;;4.53;3.35;;;9.30;72.60;;;;;;5092457;28;20032;-69
2021/01/03 09:11:26;;;;;;;5.00;3.78;;;9.30;72.60;;;;;;5092830;28;20476;-69
2021/01/03 09:14:14;;;;;;;6.20;3.75;;;9.30;72.70;;;;;;5092711;28;20044;-66
2021/01/03 09:16:54;;;;;;;4.18;3.65;;;9.30;72.50;;;;;;5091419;28;20039;-68
2021/01/03 09:19:32;;;;;;;5.15;4.00;;;9.30;72.60;;;;;;5092618;28;20040;-70
2021/01/03 09:22:01;;;;;;;4.82;3.72;;;9.30;72.70;;;;;;5092324;28;20431;-69
2021/01/03 09:24:30;;;;;;;6.63;3.67;;;9.30;72.40;;;;;;5092641;28;20051;-69
2021/01/03 09:26:58;;;;;;;4.28;3.15;;;9.20;72.10;;;;;;5091150;28;20043;-70
2021/01/03 09:29:33;;;;;;;4.50;2.70;;;9.30;72.40;;;;;;5092295;28;20123;-68
2021/01/03 09:32:09;;;;;;;3.03;2.67;;;9.30;72.10;;;;;;5091223;28;20492;-73
2021/01/03 09:35:23;;;;;;;3.53;2.72;;;9.30;71.50;;;;;;5092299;28;20040;-71
2021/01/03 09:38:20;;;;;;;3.25;2.60;;;9.30;71.70;;;;;;5049771;28;20148;-69
2021/01/03 09:40:59;;;;;;;3.63;2.92;;;9.30;71.30;;;;;;5087381;28;20043;-71
2021/01/03 09:43:55;;;;;;;3.10;2.80;;;9.30;70.90;;;;;;5090289;28;20048;-71
2021/01/03 09:46:32;;;;;;;3.67;2.58;;;9.40;71.80;;;;;;5090609;28;20046;-70
2021/01/03 09:49:24;;;;;;;6.57;3.13;;;9.40;71.80;;;;;;5089183;28;20090;-72
2021/01/03 09:52:14;;;;;;;4.25;2.97;;;9.40;71.80;;;;;;5086457;28;20135;-71
2021/01/03 09:54:58;;;;;;;3.90;2.80;;;9.40;72.10;;;;;;5090534;28;20036;-71
2021/01/03 09:57:35;;;;;;;6.45;2.67;;;9.30;71.80;;;;;;5090113;28;20036;-72
2021/01/03 10:00:07;;;;;;;4.65;2.85;;;9.30;71.90;;;;;;5093567;28;20081;-73
2021/01/03 10:02:34;;;;;;;4.20;2.70;;;9.30;72.10;;;;;;5095865;28;20086;-70
2021/01/03 10:05:00;;;;;;;3.38;2.67;;;9.30;72.00;;;;;;5094316;28;20032;-71
2021/01/03 10:07:28;;;;;;;3.92;2.78;;;9.30;71.60;;;;;;5094498;28;20036;-71
2021/01/03 10:10:01;;;;;;;4.43;2.90;;;9.30;72.00;;;;;;5094317;28;20039;-71
2021/01/03 10:12:29;;;;;;;4.05;2.53;;;9.30;72.30;;;;;;5093865;28;20180;-74
2021/01/03 10:15:09;;;;;;;4.03;2.80;;;9.30;71.90;;;;;;5094150;28;20044;-70
2021/01/03 10:17:36;;;;;;;4.28;3.00;;;9.30;72.00;;;;;;5092798;28;20044;-72
2021/01/03 10:20:15;;;;;;;5.10;3.28;;;9.30;72.10;;;;;;5094298;28;20024;-71
2021/01/03 10:22:44;;;;;;;8.88;3.13;;;9.30;71.60;;;;;;5094019;28;20036;-76
2021/01/03 10:25:16;;;;;;;3.80;3.00;;;9.30;71.70;;;;;;5094141;28;20043;-70
2021/01/03 10:28:11;;;;;;;3.20;2.58;;;9.30;72.00;;;;;;5094251;28;20474;-80
2021/01/03 10:30:38;;;;;;;5.78;2.40;;;9.30;71.60;;;;;;5093765;28;20112;-73
2021/01/03 10:33:05;;;;;;;8.38;2.72;;;9.30;71.80;;;;;;5092622;28;20109;-72
2021/01/03 10:35:31;;;;;;;8.60;2.75;;;9.40;73.20;;;;;;5094770;28;20032;-76
2021/01/03 10:37:57;;;;;;;5.85;2.72;;;9.50;74.90;;;;;;5095793;28;20090;-73
2021/01/03 10:40:24;;;;;;;6.32;3.15;;;9.50;75.60;;;;;;5095215;28;20500;-72
2021/01/03 10:42:50;;;;;;;3.50;2.13;;;9.50;75.80;;;;;;5095046;28;20396;-73
2021/01/03 10:45:18;;;;;;;4.68;1.95;;;9.50;76.00;;;;;;5094248;28;20047;-72
2021/01/03 10:47:45;;;;;;;4.43;3.00;;;9.50;76.20;;;;;;5094629;28;20071;-72
2021/01/03 10:50:13;;;;;;;3.30;2.20;;;9.50;76.20;;;;;;5095049;28;20512;-74
2021/01/03 10:52:39;;;;;;;6.68;2.90;;;9.50;76.30;;;;;;5095270;28;20032;-74
2021/01/03 10:55:07;;;;;;;3.60;2.80;;;9.50;76.40;;;;;;5095051;28;20101;-75
2021/01/03 10:57:32;;;;;;;3.10;2.78;;;9.50;76.20;;;;;;5094814;28;20070;-74
2021/01/03 10:59:59;;;;;;;3.75;2.38;;;9.50;76.10;;;;;;5095114;28;20056;-75
2021/01/03 11:02:25;;;;;;;3.22;2.70;;;9.50;75.80;;;;;;5094457;28;20051;-74
2021/01/03 11:04:52;;;;;;;3.70;2.58;;;9.50;75.50;;;;;;5094352;28;20552;-74
2021/01/03 11:07:18;;;;;;;3.10;2.63;;;9.50;75.40;;;;;;5094577;28;20044;-74
2021/01/03 11:09:46;;;;;;;3.80;2.83;;;9.50;75.40;;;;;;5094416;28;20040;-75
2021/01/03 11:12:15;;;;;;;2.83;2.53;;;9.50;75.20;;;;;;5093458;28;20358;-71
2021/01/03 11:14:41;;;;;;;3.08;2.70;;;9.50;75.10;;;;;;5092472;28;20036;-72
2021/01/03 11:17:09;;;;;;;4.05;2.28;;;9.40;75.00;;;;;;5092664;28;20429;-73
2021/01/03 11:19:36;;;;;;;5.05;3.08;;;9.40;74.90;;;;;;5093936;28;20365;-73
2021/01/03 11:22:05;;;;;;;3.83;3.03;;;9.50;74.60;;;;;;5094458;28;20124;-74
2021/01/03 11:24:31;;;;;;;3.88;2.65;;;9.40;74.50;;;;;;5094266;28;20055;-75
2021/01/03 11:27:00;;;;;;;4.07;2.72;;;9.40;74.70;;;;;;5094515;28;20368;-73
2021/01/03 11:29:27;;;;;;;4.32;3.35;;;9.40;74.50;;;;;;5094286;28;20043;-73
2021/01/03 11:31:58;;;;;;;2.95;2.65;;;9.40;74.40;;;;;;5094544;28;20116;-75
2021/01/03 11:34:30;;;;;;;4.10;3.08;;;9.40;74.30;;;;;;5094058;28;20408;-74
2021/01/03 11:36:57;;;;;;;3.25;2.95;;;9.40;74.20;;;;;;5094112;28;20081;-73
2021/01/03 11:39:24;;;;;;;3.72;2.90;;;9.30;74.10;;;;;;5094080;28;20490;-72
2021/01/03 11:41:51;;;;;;;3.78;2.70;;;9.40;74.00;;;;;;5093844;28;20036;-73
2021/01/03 11:44:20;;;;;;;4.70;2.50;;;9.30;73.90;;;;;;5093969;28;20044;-73
2021/01/03 11:46:47;;;;;;;4.35;2.67;;;9.30;73.90;;;;;;5094171;28;20048;-74
2021/01/03 11:49:14;;;;;;;3.72;3.05;;;9.30;73.90;;;;;;5093916;28;20024;-74
2021/01/03 11:51:40;;;;;;;3.22;2.85;;;9.30;74.00;;;;;;5093723;28;20039;-74
2021/01/03 11:54:07;;;;;;;4.97;3.08;;;9.30;74.00;;;;;;5093932;28;20028;-76
2021/01/03 11:56:33;;;;;;;4.65;3.50;;;9.30;73.80;;;;;;5093902;28;20492;-74
2021/01/03 11:58:59;;;;;;;5.72;3.63;;;9.30;74.10;;;;;;5093916;28;20166;-74
2021/01/03 12:01:26;;;;;;;4.32;3.42;;;9.20;74.00;;;;;;5093576;28;20586;-75
2021/01/03 12:03:52;;;;;;;4.82;3.55;;;9.30;74.10;;;;;;5093646;28;20024;-74
2021/01/03 12:06:23;;;;;;;5.03;3.70;;;9.20;74.30;;;;;;5093747;28;20040;-74
2021/01/03 12:08:50;;;;;;;5.53;3.55;;;9.20;74.20;;;;;;5092327;28;20138;-74
2021/01/03 12:11:21;;;;;;;7.00;3.85;;;9.20;74.30;;;;;;5092811;28;20388;-75
2021/01/03 12:13:52;;;;;;;6.97;4.07;;;9.20;74.50;;;;;;5092667;28;20372;-75
2021/01/03 12:16:20;;;;;;;5.97;4.03;;;9.20;74.50;;;;;;5092641;28;20510;-72
2021/01/03 12:18:47;;;;;;;5.07;4.10;;;9.20;74.70;;;;;;5093102;28;20114;-75
2021/01/03 12:21:27;;;;;;;5.75;4.07;;;9.20;75.00;;;;;;5092276;28;20438;-76
2021/01/03 12:23:54;;;;;;;6.85;4.43;;;9.20;74.80;;;;;;5091071;28;20484;-74
2021/01/03 12:26:21;;;;;;;8.35;4.75;;;9.20;75.00;;;;;;5093436;28;20076;-73
2021/01/03 12:28:47;;;;;;;7.20;4.90;;;9.20;75.20;;;;;;5092774;28;20454;-74
2021/01/03 12:31:14;;;;;;;7.80;4.90;;;9.20;75.30;;;;;;5092871;28;20412;-74
2021/01/03 12:33:40;;;;;;;7.50;4.30;;;9.20;75.40;;;;;;5093020;28;20039;-73
2021/01/03 12:36:07;;;;;;;7.97;4.70;;;9.10;75.10;;;;;;5093213;28;20458;-73
2021/01/03 12:38:34;;;;;;;6.95;4.70;;;9.10;75.30;;;;;;5093229;28;20032;-74
2021/01/03 12:41:00;;;;;;;5.85;4.47;;;9.20;75.70;;;;;;5093149;28;20093;-74
2021/01/03 12:43:27;;;;;;;7.13;4.70;;;9.10;75.90;;;;;;5093471;28;20040;-71
2021/01/03 12:45:53;;;;;;;8.60;4.63;;;9.20;76.10;;;;;;5092804;28;20405;-74
2021/01/03 12:48:19;;;;;;;7.55;4.38;;;9.10;76.00;;;;;;5092560;28;20040;-72
2021/01/03 12:50:46;;;;;;;7.03;4.72;;;9.10;76.00;;;;;;5093318;28;20040;-71
2021/01/03 12:53:12;;;;;;;6.88;4.82;;;9.10;76.40;;;;;;5093111;28;20020;-74
2021/01/03 12:55:38;;;;;;;7.10;4.63;;;9.10;76.40;;;;;;5094667;28;20430;-75
2021/01/03 12:58:03;;;;;;;6.20;4.72;;;9.10;76.30;;;;;;5093165;28;20089;-74
2021/01/03 13:00:29;;;;;;;6.47;4.43;;;9.10;76.60;;;;;;5092742;28;20059;-74
2021/01/03 13:02:55;;;;;;;6.38;5.03;;;9.10;76.60;;;;;;5092450;28;20048;-75
2021/01/03 13:05:21;;;;;;;6.38;4.40;;;9.10;76.70;;;;;;5092738;28;20032;-74
2021/01/03 13:07:47;;;;;;;7.90;4.85;;;9.10;76.70;;;;;;5092852;28;20456;-73
2021/01/03 13:10:14;;;;;;;8.32;4.53;;;9.10;76.70;;;;;;5092605;28;20047;-74
2021/01/03 13:12:41;;;;;;;8.43;4.78;;;9.00;76.70;;;;;;5091199;28;20040;-76
2021/01/03 13:15:09;;;;;;;6.18;4.60;;;9.10;76.60;;;;;;5092268;28;20028;-72
2021/01/03 13:17:35;;;;;;;7.45;5.00;;;9.00;76.90;;;;;;5092966;28;20563;-71
2021/01/03 13:20:01;;;;;;;8.68;4.90;;;9.00;76.90;;;;;;5092359;28;20115;-74
2021/01/03 13:22:27;;;;;;;8.60;4.75;;;9.00;77.00;;;;;;5092314;28;20040;-74